createdAt,value
2022-09-23T00:01:06.401Z,62.25
2022-09-23T00:03:33.617Z,61.14
2022-09-23T00:06:06.709Z,61.97
2022-09-23T00:08:33.632Z,61.36
2022-09-23T00:11:11.433Z,62.23
2022-09-23T00:13:39.639Z,61.25
2022-09-23T00:16:10.124Z,61.48
2022-09-23T00:18:36.660Z,61.31
2022-09-23T00:21:09.416Z,62.30
2022-09-23T00:23:36.382Z,61.33
2022-09-23T00:26:05.374Z,61.53
2022-09-23T00:28:32.565Z,61.58
2022-09-23T00:31:04.202Z,62.19
2022-09-23T00:33:30.854Z,61.61
2022-09-23T00:36:02.368Z,62.29
2022-09-23T00:38:29.364Z,61.76
2022-09-23T00:40:56.618Z,61.75
2022-09-23T00:43:38.122Z,63.07
2022-09-23T00:46:07.984Z,62.23
2022-09-23T00:48:36.715Z,62.05
2022-09-23T00:51:05.117Z,62.21
2022-09-23T00:53:31.642Z,62.13
2022-09-23T00:56:02.753Z,62.75
2022-09-23T00:58:32.781Z,62.44
2022-09-23T01:01:01.311Z,62.43
2022-09-23T01:03:28.067Z,62.24
2022-09-23T01:05:55.685Z,62.38
2022-09-23T01:08:23.826Z,62.45
2022-09-23T01:11:03.090Z,62.96
2022-09-23T01:14:01.893Z,62.75
2022-09-23T01:16:38.079Z,62.21
2022-09-23T01:19:22.655Z,61.92
2022-09-23T01:22:08.736Z,61.90
2022-09-23T01:25:07.297Z,61.93
2022-09-23T01:27:51.541Z,61.91
2022-09-23T01:30:37.661Z,61.68
2022-09-23T01:33:24.130Z,61.68
2022-09-23T01:36:27.633Z,61.80
2022-09-23T01:39:12.091Z,61.64
2022-09-23T01:41:53.567Z,61.91
2022-09-23T01:44:30.449Z,61.76
2022-09-23T01:47:01.738Z,61.68
2022-09-23T01:49:48.649Z,61.70
2022-09-23T01:52:28.144Z,61.87
2022-09-23T01:55:16.141Z,61.59
2022-09-23T01:58:05.438Z,61.55
2022-09-23T02:00:39.243Z,61.52
2022-09-23T02:03:15.066Z,61.72
2022-09-23T02:05:47.735Z,61.70
2022-09-23T02:08:19.699Z,61.45
2022-09-23T02:10:49.149Z,61.48
2022-09-23T02:13:23.297Z,61.58
2022-09-23T02:15:59.202Z,61.85
2022-09-23T02:18:31.588Z,61.50
2022-09-23T02:21:04.737Z,61.39
2022-09-23T02:23:41.947Z,61.78
2022-09-23T02:26:18.830Z,61.79
2022-09-23T02:29:05.201Z,61.53
2022-09-23T02:31:55.852Z,61.76
2022-09-23T02:34:45.398Z,62.00
2022-09-23T02:37:17.963Z,61.33
2022-09-23T02:40:22.804Z,61.93
2022-09-23T02:43:15.610Z,62.03
2022-09-23T02:45:42.378Z,61.54
2022-09-23T02:48:14.345Z,61.69
2022-09-23T02:50:41.252Z,61.55
2022-09-23T02:53:08.050Z,61.62
2022-09-23T02:55:34.699Z,61.47
2022-09-23T02:58:02.724Z,61.66
2022-09-23T03:00:42.261Z,61.79
2022-09-23T03:03:33.263Z,61.79
2022-09-23T03:06:05.017Z,61.75
2022-09-23T03:08:47.612Z,61.93
2022-09-23T03:11:15.390Z,61.56
2022-09-23T03:13:53.909Z,61.87
2022-09-23T03:16:41.922Z,61.79
2022-09-23T03:19:26.632Z,61.90
2022-09-23T03:22:06.804Z,62.02
2022-09-23T03:24:35.936Z,61.68
2022-09-23T03:27:08.470Z,61.74
2022-09-23T03:29:35.529Z,61.64
2022-09-23T03:32:02.768Z,61.69
2022-09-23T03:34:33.868Z,61.93
2022-09-23T03:37:14.245Z,62.22
2022-09-23T03:39:44.428Z,61.81
2022-09-23T03:42:19.375Z,62.18
2022-09-23T03:44:47.162Z,61.78
2022-09-23T03:47:15.679Z,61.80
2022-09-23T03:49:46.349Z,61.90
2022-09-23T03:52:12.822Z,61.83
2022-09-23T03:54:39.435Z,61.72
2022-09-23T03:57:06.051Z,61.85
2022-09-23T03:59:32.792Z,61.63
2022-09-23T04:02:00.313Z,61.93
2022-09-23T04:04:27.399Z,61.89
2022-09-23T04:06:55.674Z,61.84
2022-09-23T04:09:22.867Z,61.77
2022-09-23T04:11:50.573Z,61.61
2022-09-23T04:14:18.583Z,61.66
2022-09-23T04:16:45.648Z,61.64
2022-09-23T04:19:14.063Z,61.62
2022-09-23T04:21:41.311Z,61.75
2022-09-23T04:24:09.431Z,61.49
2022-09-23T04:26:37.771Z,61.51
2022-09-23T04:29:05.623Z,61.55
2022-09-23T04:31:33.970Z,61.55
2022-09-23T04:34:01.059Z,61.49
2022-09-23T04:36:27.789Z,61.70
2022-09-23T04:38:54.296Z,61.81
2022-09-23T04:41:20.905Z,61.63
2022-09-23T04:43:47.498Z,61.91
2022-09-23T04:46:16.082Z,61.77
2022-09-23T04:48:43.336Z,62.05
2022-09-23T04:51:19.030Z,62.14
2022-09-23T04:53:47.299Z,61.97
2022-09-23T04:56:18.908Z,62.40
2022-09-23T04:58:45.957Z,62.08
2022-09-23T05:01:19.456Z,62.33
2022-09-23T05:03:46.624Z,62.27
2022-09-23T05:06:14.574Z,62.25
2022-09-23T05:08:46.360Z,62.41
2022-09-23T05:11:12.824Z,62.34
2022-09-23T05:13:39.290Z,62.21
2022-09-23T05:16:08.901Z,62.39
2022-09-23T05:18:37.271Z,62.45
2022-09-23T05:21:04.197Z,62.65
2022-09-23T05:23:30.925Z,62.73
2022-09-23T05:26:02.674Z,62.85
2022-09-23T05:28:30.870Z,62.95
2022-09-23T05:31:04.431Z,63.08
2022-09-23T05:33:32.288Z,62.83
2022-09-23T05:35:59.000Z,62.96
2022-09-23T05:38:25.690Z,63.12
2022-09-23T05:40:59.972Z,63.93
2022-09-23T05:43:27.032Z,63.57
2022-09-23T05:46:07.218Z,64.11
2022-09-23T05:48:36.458Z,63.86
2022-09-23T05:51:04.145Z,63.69
2022-09-23T05:53:31.047Z,63.72
2022-09-23T05:55:58.066Z,63.83
2022-09-23T05:58:25.247Z,63.59
2022-09-23T06:00:52.029Z,63.50
2022-09-23T06:03:20.548Z,63.63
2022-09-23T06:05:47.611Z,63.82
2022-09-23T06:08:14.839Z,63.84
2022-09-23T06:10:47.869Z,63.82
2022-09-23T06:13:16.244Z,63.84
2022-09-23T06:15:43.112Z,64.07
2022-09-23T06:18:10.292Z,64.14
2022-09-23T06:20:37.490Z,64.32
2022-09-23T06:23:11.197Z,64.68
2022-09-23T06:25:38.226Z,64.39
2022-09-23T06:28:05.400Z,64.45
2022-09-23T06:30:31.870Z,64.48
2022-09-23T06:32:58.535Z,64.37
2022-09-23T06:35:27.715Z,64.54
2022-09-23T06:37:55.066Z,64.51
2022-09-23T06:40:22.312Z,64.46
2022-09-23T06:42:56.578Z,64.59
2022-09-23T06:45:23.055Z,64.53
2022-09-23T06:47:54.071Z,64.96
2022-09-23T06:50:20.598Z,64.71
2022-09-23T06:52:56.729Z,65.28
2022-09-23T06:55:24.172Z,65.11
2022-09-23T06:57:51.089Z,65.20
2022-09-23T07:00:18.123Z,65.59
2022-09-23T07:02:45.200Z,65.60
2022-09-23T07:05:12.200Z,65.97
2022-09-23T07:07:38.955Z,66.05
2022-09-23T07:10:06.675Z,66.12
2022-09-23T07:12:33.999Z,66.21
2022-09-23T07:15:01.037Z,66.63
2022-09-23T07:17:27.850Z,66.77
2022-09-23T07:19:54.350Z,66.77
2022-09-23T07:22:25.212Z,66.88
2022-09-23T07:24:52.512Z,67.06
2022-09-23T07:27:19.014Z,67.00
2022-09-23T07:29:52.189Z,67.28
2022-09-23T07:32:20.383Z,67.28
2022-09-23T07:34:47.029Z,67.15
2022-09-23T07:37:17.906Z,67.27
2022-09-23T07:39:45.035Z,67.21
2022-09-23T07:42:11.713Z,66.98
2022-09-23T07:44:38.907Z,67.03
2022-09-23T07:47:05.644Z,67.00
2022-09-23T07:49:34.874Z,66.95
2022-09-23T07:52:01.608Z,66.81
2022-09-23T07:54:28.073Z,66.68
2022-09-23T07:56:54.681Z,66.52
2022-09-23T07:59:21.311Z,66.33
2022-09-23T08:01:50.308Z,66.08
2022-09-23T08:04:26.056Z,65.79
2022-09-23T08:06:55.751Z,66.05
2022-09-23T08:09:25.440Z,65.88
2022-09-23T08:11:52.487Z,65.72
2022-09-23T08:14:19.770Z,65.65
2022-09-23T08:16:46.548Z,65.64
2022-09-23T08:19:13.431Z,65.56
2022-09-23T08:21:40.122Z,65.60
2022-09-23T08:24:13.656Z,65.50
2022-09-23T08:26:40.364Z,65.43
2022-09-23T08:29:06.968Z,65.25
2022-09-23T08:31:33.491Z,65.25
2022-09-23T08:34:00.581Z,64.66
2022-09-23T08:36:27.610Z,64.71
2022-09-23T08:38:54.193Z,63.78
2022-09-23T08:41:45.742Z,63.55
2022-09-23T08:44:35.007Z,64.09
2022-09-23T08:47:16.225Z,63.40
2022-09-23T08:49:55.186Z,63.31
2022-09-23T08:52:36.517Z,62.83
2022-09-23T08:55:04.153Z,63.27
2022-09-23T08:57:41.204Z,62.50
2022-09-23T09:00:16.951Z,62.31
2022-09-23T09:02:43.660Z,63.36
2022-09-23T09:05:12.701Z,63.15
2022-09-23T09:07:41.363Z,62.29
2022-09-23T09:10:23.463Z,61.01
2022-09-23T09:12:59.918Z,62.16
2022-09-23T09:15:28.515Z,62.01
2022-09-23T09:18:06.041Z,60.11
2022-09-23T09:20:40.393Z,61.23
2022-09-23T09:23:21.024Z,60.66
2022-09-23T09:26:11.175Z,61.04
2022-09-23T09:28:42.535Z,61.17
2022-09-23T09:31:29.290Z,59.59
2022-09-23T09:34:03.254Z,59.35
2022-09-23T09:36:40.113Z,59.15
2022-09-23T09:39:12.543Z,59.16
2022-09-23T09:41:45.112Z,59.59
2022-09-23T09:44:42.433Z,58.74
2022-09-23T09:47:26.555Z,59.63
2022-09-23T09:49:57.412Z,59.34
2022-09-23T09:52:26.229Z,60.22
2022-09-23T09:54:53.157Z,59.77
2022-09-23T09:57:33.699Z,57.00
2022-09-23T10:00:40.407Z,56.83
2022-09-23T10:03:13.078Z,57.58
2022-09-23T10:05:45.780Z,56.69
2022-09-23T10:08:26.377Z,57.16
2022-09-23T10:10:55.460Z,58.08
2022-09-23T10:13:22.512Z,58.15
2022-09-23T10:15:49.075Z,58.35
2022-09-23T10:18:28.310Z,56.27
2022-09-23T10:21:01.841Z,56.39
2022-09-23T10:23:30.297Z,57.75
2022-09-23T10:26:06.442Z,55.99
2022-09-23T10:28:45.898Z,56.39
2022-09-23T10:31:33.209Z,55.59
2022-09-23T10:34:20.500Z,54.81
2022-09-23T10:36:55.600Z,55.04
2022-09-23T10:39:22.144Z,56.51
2022-09-23T10:42:22.776Z,54.02
2022-09-23T10:45:17.924Z,55.06
2022-09-23T10:48:19.939Z,51.48
2022-09-23T10:50:49.972Z,53.81
2022-09-23T10:53:45.358Z,50.79
2022-09-23T10:56:33.773Z,50.94
2022-09-23T10:59:14.498Z,51.80
2022-09-23T11:01:48.487Z,48.78
2022-09-23T11:04:37.103Z,52.31
2022-09-23T11:07:09.364Z,53.71
2022-09-23T11:09:53.692Z,51.71
2022-09-23T11:12:23.246Z,51.99
2022-09-23T11:15:14.505Z,51.24
2022-09-23T11:17:59.194Z,49.67
2022-09-23T11:20:28.745Z,49.19
2022-09-23T11:23:07.337Z,48.09
2022-09-23T11:26:20.686Z,49.00
2022-09-23T11:29:00.257Z,47.31
2022-09-23T11:31:32.514Z,46.92
2022-09-23T11:34:21.861Z,49.42
2022-09-23T11:37:03.741Z,47.70
2022-09-23T11:39:41.214Z,47.46
2022-09-23T11:42:17.424Z,46.64
2022-09-23T11:44:50.273Z,46.95
2022-09-23T11:47:25.953Z,47.65
2022-09-23T11:50:09.995Z,46.36
2022-09-23T11:52:48.207Z,45.76
2022-09-23T11:55:21.351Z,48.14
2022-09-23T11:57:53.051Z,48.08
2022-09-23T12:00:25.009Z,46.00
2022-09-23T12:03:06.566Z,47.04
2022-09-23T12:05:39.086Z,45.84
2022-09-23T12:08:05.685Z,47.14
2022-09-23T12:11:03.095Z,45.90
2022-09-23T12:13:48.372Z,46.21
2022-09-23T12:16:39.822Z,44.41
2022-09-23T12:19:30.982Z,47.16
2022-09-23T12:22:20.112Z,43.70
2022-09-23T12:25:32.889Z,43.02
2022-09-23T12:28:11.475Z,43.38
2022-09-23T12:30:39.252Z,46.44
2022-09-23T12:33:18.970Z,44.51
2022-09-23T12:35:46.275Z,43.23
2022-09-23T12:38:22.492Z,41.07
2022-09-23T12:40:49.575Z,44.16
2022-09-23T12:43:32.457Z,43.01
2022-09-23T12:46:20.817Z,44.39
2022-09-23T12:48:56.011Z,44.25
2022-09-23T12:51:22.872Z,43.85
2022-09-23T12:54:04.547Z,42.81
2022-09-23T12:56:34.037Z,43.39
2022-09-23T12:59:11.296Z,43.95
2022-09-23T13:01:39.017Z,45.12
2022-09-23T13:04:05.958Z,43.09
2022-09-23T13:06:55.883Z,43.33
2022-09-23T13:09:45.198Z,43.60
2022-09-23T13:12:23.985Z,42.68
2022-09-23T13:14:54.557Z,43.02
2022-09-23T13:17:40.265Z,43.14
2022-09-23T13:20:35.280Z,42.22
2022-09-23T13:23:26.077Z,41.55
2022-09-23T13:26:10.201Z,41.75
2022-09-23T13:28:43.678Z,42.57
2022-09-23T13:31:16.275Z,40.57
2022-09-23T13:33:59.496Z,41.30
2022-09-23T13:36:26.069Z,42.00
2022-09-23T13:38:52.661Z,42.20
2022-09-23T13:41:23.288Z,42.24
2022-09-23T13:43:53.677Z,41.99
2022-09-23T13:46:27.399Z,42.10
2022-09-23T13:48:55.451Z,43.59
2022-09-23T13:51:26.519Z,43.61
2022-09-23T13:53:55.397Z,44.46
2022-09-23T13:56:23.021Z,44.53
2022-09-23T13:58:49.555Z,44.55
2022-09-23T14:01:34.155Z,44.20
2022-09-23T14:04:01.735Z,42.43
2022-09-23T14:06:31.428Z,42.14
2022-09-23T14:09:01.357Z,43.06
2022-09-23T14:11:33.725Z,40.37
2022-09-23T14:14:01.966Z,41.49
2022-09-23T14:16:29.597Z,41.85
2022-09-23T14:18:59.144Z,41.21
2022-09-23T14:21:33.527Z,42.11
2022-09-23T14:24:32.029Z,43.65
2022-09-23T14:27:13.884Z,42.36
2022-09-23T14:29:43.563Z,42.22
2022-09-23T14:32:14.013Z,41.97
2022-09-23T14:34:52.124Z,41.51
2022-09-23T14:37:18.558Z,41.04
2022-09-23T14:39:45.203Z,41.79
2022-09-23T14:42:13.192Z,40.82
2022-09-23T14:44:39.728Z,41.40
2022-09-23T14:47:11.584Z,42.03
2022-09-23T14:49:39.069Z,42.32
2022-09-23T14:52:06.288Z,40.65
2022-09-23T14:54:38.675Z,41.32
2022-09-23T14:57:23.469Z,41.92
2022-09-23T15:00:15.460Z,41.05
2022-09-23T15:02:44.301Z,42.37
2022-09-23T15:05:22.728Z,41.33
2022-09-23T15:07:55.753Z,41.82
2022-09-23T15:10:26.833Z,41.84
2022-09-23T15:12:55.377Z,43.08
2022-09-23T15:15:27.516Z,43.05
2022-09-23T15:17:54.328Z,42.80
2022-09-23T15:20:26.404Z,40.92
2022-09-23T15:22:54.973Z,40.57
2022-09-23T15:25:21.632Z,40.78
2022-09-23T15:28:24.862Z,42.26
2022-09-23T15:30:51.433Z,42.35
2022-09-23T15:33:18.029Z,42.61
2022-09-23T15:35:48.656Z,42.16
2022-09-23T15:38:15.272Z,43.06
2022-09-23T15:40:42.043Z,42.97
2022-09-23T15:43:20.501Z,42.40
2022-09-23T15:45:50.482Z,42.66
2022-09-23T15:48:19.987Z,43.32
2022-09-23T15:50:46.724Z,43.67
2022-09-23T15:53:15.851Z,44.10
2022-09-23T15:55:42.458Z,44.14
2022-09-23T15:58:08.937Z,44.67
2022-09-23T16:00:35.704Z,44.78
2022-09-23T16:03:02.366Z,44.34
2022-09-23T16:05:32.946Z,44.80
2022-09-23T16:07:59.654Z,45.34
2022-09-23T16:10:26.700Z,46.00
2022-09-23T16:12:55.954Z,46.43
2022-09-23T16:15:24.109Z,46.47
2022-09-23T16:17:50.533Z,45.98
2022-09-23T16:20:17.814Z,46.07
2022-09-23T16:22:58.941Z,45.47
2022-09-23T16:25:28.276Z,45.72
2022-09-23T16:27:58.649Z,46.09
2022-09-23T16:30:26.967Z,46.71
2022-09-23T16:32:53.688Z,47.19
2022-09-23T16:35:22.336Z,47.48
2022-09-23T16:37:49.346Z,47.88
2022-09-23T16:40:18.775Z,48.04
2022-09-23T16:42:45.647Z,48.38
2022-09-23T16:45:16.699Z,48.41
2022-09-23T16:47:47.654Z,49.32
2022-09-23T16:50:17.143Z,49.52
2022-09-23T16:52:44.153Z,49.53
2022-09-23T16:55:12.712Z,49.92
2022-09-23T16:57:40.335Z,50.20
2022-09-23T17:00:11.881Z,50.35
2022-09-23T17:02:38.626Z,50.42
2022-09-23T17:05:05.636Z,50.70
2022-09-23T17:07:32.289Z,50.79
2022-09-23T17:09:58.916Z,51.16
2022-09-23T17:12:31.606Z,51.51
2022-09-23T17:14:58.143Z,51.10
2022-09-23T17:17:24.755Z,51.62
2022-09-23T17:19:51.264Z,51.62
2022-09-23T17:22:17.819Z,51.93
2022-09-23T17:24:44.344Z,52.09
2022-09-23T17:27:10.989Z,52.31
2022-09-23T17:29:37.530Z,52.55
2022-09-23T17:32:04.084Z,52.86
2022-09-23T17:34:30.732Z,52.95
2022-09-23T17:36:57.280Z,53.11
2022-09-23T17:39:23.821Z,53.18
2022-09-23T17:41:50.436Z,53.63
2022-09-23T17:44:16.891Z,53.60
2022-09-23T17:46:43.447Z,53.75
2022-09-23T17:49:10.050Z,54.01
2022-09-23T17:51:36.687Z,53.84
2022-09-23T17:54:03.263Z,54.12
2022-09-23T17:56:29.748Z,54.46
2022-09-23T17:59:00.006Z,55.27
2022-09-23T18:01:26.916Z,54.68
2022-09-23T18:03:55.120Z,55.02
2022-09-23T18:06:23.104Z,55.01
2022-09-23T18:08:51.535Z,54.95
2022-09-23T18:11:21.691Z,55.21
2022-09-23T18:13:51.174Z,55.37
2022-09-23T18:16:18.882Z,55.21
2022-09-23T18:18:59.419Z,56.12
2022-09-23T18:21:29.632Z,56.19
2022-09-23T18:24:06.523Z,55.79
2022-09-23T18:26:43.455Z,55.81
2022-09-23T18:29:10.490Z,56.01
2022-09-23T18:31:38.629Z,56.38
2022-09-23T18:34:07.005Z,56.31
2022-09-23T18:36:34.410Z,55.83
2022-09-23T18:39:01.446Z,56.07
2022-09-23T18:41:28.451Z,56.22
2022-09-23T18:43:55.099Z,56.25
2022-09-23T18:46:26.724Z,57.56
2022-09-23T18:48:53.345Z,56.76
2022-09-23T18:51:22.282Z,56.94
2022-09-23T18:53:48.768Z,56.74
2022-09-23T18:56:18.781Z,57.62
2022-09-23T18:58:46.338Z,57.08
2022-09-23T19:01:12.899Z,57.15
2022-09-23T19:03:39.559Z,57.20
2022-09-23T19:06:21.138Z,58.54
2022-09-23T19:08:50.923Z,57.92
2022-09-23T19:11:17.719Z,57.58
2022-09-23T19:13:44.277Z,57.68
2022-09-23T19:16:16.373Z,58.11
2022-09-23T19:18:44.702Z,57.96
2022-09-23T19:21:12.075Z,58.13
2022-09-23T19:23:40.394Z,58.21
2022-09-23T19:26:09.759Z,58.57
2022-09-23T19:28:37.499Z,58.24
2022-09-23T19:31:14.314Z,59.27
2022-09-23T19:33:40.952Z,58.33
2022-09-23T19:36:07.720Z,58.44
2022-09-23T19:38:34.345Z,58.52
2022-09-23T19:41:07.896Z,59.82
2022-09-23T19:43:37.638Z,59.54
2022-09-23T19:46:05.293Z,58.79
2022-09-23T19:48:31.806Z,58.88
2022-09-23T19:50:59.042Z,58.94
2022-09-23T19:53:28.139Z,58.87
2022-09-23T19:55:54.944Z,59.02
2022-09-23T19:58:21.609Z,58.96
2022-09-23T20:00:48.471Z,59.09
2022-09-23T20:03:15.038Z,59.11
2022-09-23T20:05:41.491Z,59.19
2022-09-23T20:08:08.077Z,59.10
2022-09-23T20:10:34.624Z,59.18
2022-09-23T20:13:01.151Z,59.22
2022-09-23T20:15:27.701Z,59.19
2022-09-23T20:17:54.185Z,59.36
2022-09-23T20:20:20.812Z,59.33
2022-09-23T20:22:50.126Z,59.34
2022-09-23T20:25:16.685Z,59.34
2022-09-23T20:27:43.156Z,59.40
2022-09-23T20:30:10.262Z,59.42
2022-09-23T20:32:36.804Z,59.57
2022-09-23T20:35:04.064Z,59.64
2022-09-23T20:37:30.627Z,59.62
2022-09-23T20:39:57.161Z,59.74
2022-09-23T20:42:23.760Z,59.71
2022-09-23T20:44:50.371Z,59.79
2022-09-23T20:47:18.253Z,59.94
2022-09-23T20:49:45.976Z,59.98
2022-09-23T20:52:15.379Z,60.21
2022-09-23T20:54:42.392Z,59.98
2022-09-23T20:57:11.236Z,60.10
2022-09-23T20:59:38.756Z,60.17
2022-09-23T21:02:05.733Z,60.34
2022-09-23T21:04:32.336Z,60.34
2022-09-23T21:06:58.890Z,60.38
2022-09-23T21:09:26.481Z,60.42
2022-09-23T21:11:53.940Z,60.41
2022-09-23T21:14:20.518Z,60.45
2022-09-23T21:16:47.063Z,60.42
2022-09-23T21:19:13.698Z,60.54
2022-09-23T21:21:40.158Z,60.66
2022-09-23T21:24:38.784Z,60.68
2022-09-23T21:26:53.308Z,60.87
2022-09-23T21:29:19.883Z,60.92
2022-09-23T21:31:46.484Z,60.94
2022-09-23T21:34:13.316Z,60.90
2022-09-23T21:36:41.803Z,61.12
2022-09-23T21:39:09.361Z,61.01
2022-09-23T21:41:36.648Z,61.09
2022-09-23T21:44:03.988Z,61.04
2022-09-23T21:46:31.716Z,61.31
2022-09-23T21:48:58.288Z,61.17
2022-09-23T21:51:29.500Z,62.16
2022-09-23T21:53:58.198Z,61.58
2022-09-23T21:56:27.012Z,61.50
2022-09-23T21:58:55.053Z,61.61
2022-09-23T22:01:24.601Z,61.89
2022-09-23T22:03:53.741Z,61.75
2022-09-23T22:06:29.437Z,62.33
2022-09-23T22:08:58.756Z,61.78
2022-09-23T22:11:28.113Z,61.59
2022-09-23T22:13:54.663Z,61.54
2022-09-23T22:16:21.167Z,61.62
2022-09-23T22:18:50.941Z,62.15
2022-09-23T22:21:17.941Z,61.66
2022-09-23T22:23:44.534Z,61.72
2022-09-23T22:26:11.098Z,61.64
2022-09-23T22:28:37.653Z,61.74
2022-09-23T22:31:04.264Z,61.80
2022-09-23T22:33:30.834Z,61.83
2022-09-23T22:36:03.511Z,62.78
2022-09-23T22:38:30.086Z,61.97
2022-09-23T22:40:57.434Z,62.09
2022-09-23T22:43:24.049Z,62.04
2022-09-23T22:45:50.702Z,62.12
2022-09-23T22:48:17.516Z,62.23
2022-09-23T22:50:44.020Z,62.38
2022-09-23T22:53:10.566Z,62.32
2022-09-23T22:55:37.176Z,62.44
2022-09-23T22:58:27.654Z,62.64
2022-09-23T23:00:51.500Z,62.47
2022-09-23T23:03:18.047Z,62.57
2022-09-23T23:05:44.627Z,62.52
2022-09-23T23:08:11.274Z,62.39
2022-09-23T23:10:37.843Z,62.38
2022-09-23T23:13:04.279Z,62.28
2022-09-23T23:15:30.830Z,62.33
2022-09-23T23:17:57.328Z,62.36
2022-09-23T23:20:23.831Z,62.39
2022-09-23T23:22:50.414Z,62.49
2022-09-23T23:25:16.957Z,62.44
2022-09-23T23:27:43.574Z,62.49
2022-09-23T23:30:10.615Z,62.52
2022-09-23T23:32:37.296Z,62.75
2022-09-23T23:35:04.100Z,62.73
2022-09-23T23:37:30.738Z,62.68
2022-09-23T23:39:57.329Z,62.67
2022-09-23T23:42:23.886Z,62.78
2022-09-23T23:44:50.532Z,62.76
2022-09-23T23:47:17.038Z,62.55
2022-09-23T23:49:43.581Z,62.65
2022-09-23T23:52:10.246Z,62.70
2022-09-23T23:54:36.760Z,62.74
2022-09-23T23:57:03.445Z,62.71
2022-09-23T23:59:29.975Z,62.75
